sensor_id;sensor_type;location;lat;lon;timestamp;P1;durP1;ratioP1;P2;durP2;ratioP2
37905;SDS011;23739;51.448;6.674;2023-04-06T00:02:01;16.98;;;9.35;;
37905;SDS011;23739;51.448;6.674;2023-04-06T00:04:27;17.33;;;9.18;;
37905;SDS011;23739;51.448;6.674;2023-04-06T00:06:53;16.95;;;9.55;;
37905;SDS011;23739;51.448;6.674;2023-04-06T00:09:19;21.10;;;9.80;;
37905;SDS011;23739;51.448;6.674;2023-04-06T00:11:45;15.32;;;9.40;;
37905;SDS011;23739;51.448;6.674;2023-04-06T00:14:11;12.07;;;8.75;;
37905;SDS011;23739;51.448;6.674;2023-04-06T00:16:39;13.35;;;8.02;;
37905;SDS011;23739;51.448;6.674;2023-04-06T00:19:05;15.93;;;8.32;;
37905;SDS011;23739;51.448;6.674;2023-04-06T00:21:31;15.98;;;9.25;;
37905;SDS011;23739;51.448;6.674;2023-04-06T00:23:57;17.73;;;8.35;;
37905;SDS011;23739;51.448;6.674;2023-04-06T00:26:23;17.83;;;9.52;;
37905;SDS011;23739;51.448;6.674;2023-04-06T00:28:49;14.57;;;8.45;;
37905;SDS011;23739;51.448;6.674;2023-04-06T00:31:17;15.55;;;8.65;;
37905;SDS011;23739;51.448;6.674;2023-04-06T00:33:43;17.23;;;9.35;;
37905;SDS011;23739;51.448;6.674;2023-04-06T00:36:09;15.23;;;8.63;;
37905;SDS011;23739;51.448;6.674;2023-04-06T00:38:35;14.77;;;8.40;;
37905;SDS011;23739;51.448;6.674;2023-04-06T00:41:03;14.20;;;8.23;;
37905;SDS011;23739;51.448;6.674;2023-04-06T00:43:29;16.75;;;8.88;;
37905;SDS011;23739;51.448;6.674;2023-04-06T00:45:55;15.13;;;8.02;;
37905;SDS011;23739;51.448;6.674;2023-04-06T00:48:21;18.20;;;9.10;;
37905;SDS011;23739;51.448;6.674;2023-04-06T00:50:48;11.63;;;7.72;;
37905;SDS011;23739;51.448;6.674;2023-04-06T00:53:14;13.15;;;7.70;;
37905;SDS011;23739;51.448;6.674;2023-04-06T00:55:40;15.80;;;8.55;;
37905;SDS011;23739;51.448;6.674;2023-04-06T00:58:06;14.55;;;8.35;;
37905;SDS011;23739;51.448;6.674;2023-04-06T01:00:32;14.82;;;8.60;;
37905;SDS011;23739;51.448;6.674;2023-04-06T01:02:58;14.45;;;8.68;;
37905;SDS011;23739;51.448;6.674;2023-04-06T01:05:25;14.35;;;8.48;;
37905;SDS011;23739;51.448;6.674;2023-04-06T01:07:51;13.23;;;7.55;;
37905;SDS011;23739;51.448;6.674;2023-04-06T01:10:27;17.15;;;8.43;;
37905;SDS011;23739;51.448;6.674;2023-04-06T01:12:53;11.80;;;7.60;;
37905;SDS011;23739;51.448;6.674;2023-04-06T01:15:20;12.10;;;7.70;;
37905;SDS011;23739;51.448;6.674;2023-04-06T01:17:46;15.63;;;7.97;;
37905;SDS011;23739;51.448;6.674;2023-04-06T01:20:12;15.88;;;7.03;;
37905;SDS011;23739;51.448;6.674;2023-04-06T01:22:39;12.73;;;7.75;;
37905;SDS011;23739;51.448;6.674;2023-04-06T01:25:05;16.15;;;7.38;;
37905;SDS011;23739;51.448;6.674;2023-04-06T01:27:32;17.48;;;7.25;;
37905;SDS011;23739;51.448;6.674;2023-04-06T01:29:58;12.55;;;7.18;;
37905;SDS011;23739;51.448;6.674;2023-04-06T01:32:24;10.93;;;7.13;;
37905;SDS011;23739;51.448;6.674;2023-04-06T01:34:50;13.02;;;7.03;;
37905;SDS011;23739;51.448;6.674;2023-04-06T01:37:17;12.40;;;6.78;;
37905;SDS011;23739;51.448;6.674;2023-04-06T01:39:43;10.20;;;6.53;;
37905;SDS011;23739;51.448;6.674;2023-04-06T01:42:10;16.75;;;6.70;;
37905;SDS011;23739;51.448;6.674;2023-04-06T01:44:36;16.88;;;7.80;;
37905;SDS011;23739;51.448;6.674;2023-04-06T01:47:02;16.33;;;7.50;;
37905;SDS011;23739;51.448;6.674;2023-04-06T01:49:28;14.32;;;7.05;;
37905;SDS011;23739;51.448;6.674;2023-04-06T01:51:55;14.13;;;7.25;;
37905;SDS011;23739;51.448;6.674;2023-04-06T01:54:21;15.73;;;6.80;;
37905;SDS011;23739;51.448;6.674;2023-04-06T01:56:47;11.48;;;7.00;;
37905;SDS011;23739;51.448;6.674;2023-04-06T01:59:15;13.93;;;8.25;;
37905;SDS011;23739;51.448;6.674;2023-04-06T02:01:41;11.32;;;7.32;;
37905;SDS011;23739;51.448;6.674;2023-04-06T02:04:08;10.98;;;6.60;;
37905;SDS011;23739;51.448;6.674;2023-04-06T02:06:34;13.65;;;7.40;;
37905;SDS011;23739;51.448;6.674;2023-04-06T02:09:00;11.32;;;7.78;;
37905;SDS011;23739;51.448;6.674;2023-04-06T02:11:26;9.77;;;6.40;;
37905;SDS011;23739;51.448;6.674;2023-04-06T02:13:52;11.02;;;6.90;;
37905;SDS011;23739;51.448;6.674;2023-04-06T02:16:19;13.68;;;7.97;;
37905;SDS011;23739;51.448;6.674;2023-04-06T02:18:45;12.82;;;7.22;;
37905;SDS011;23739;51.448;6.674;2023-04-06T02:21:11;13.10;;;6.80;;
37905;SDS011;23739;51.448;6.674;2023-04-06T02:23:37;14.48;;;7.85;;
37905;SDS011;23739;51.448;6.674;2023-04-06T02:26:03;10.02;;;7.40;;
37905;SDS011;23739;51.448;6.674;2023-04-06T02:28:30;13.65;;;7.10;;
37905;SDS011;23739;51.448;6.674;2023-04-06T02:30:56;13.38;;;6.75;;
37905;SDS011;23739;51.448;6.674;2023-04-06T02:33:22;12.00;;;7.25;;
37905;SDS011;23739;51.448;6.674;2023-04-06T02:35:48;12.10;;;7.57;;
37905;SDS011;23739;51.448;6.674;2023-04-06T02:38:14;12.82;;;7.45;;
37905;SDS011;23739;51.448;6.674;2023-04-06T02:40:40;14.13;;;7.65;;
37905;SDS011;23739;51.448;6.674;2023-04-06T02:43:06;11.57;;;7.38;;
37905;SDS011;23739;51.448;6.674;2023-04-06T02:45:33;11.18;;;7.18;;
37905;SDS011;23739;51.448;6.674;2023-04-06T02:47:59;13.40;;;7.32;;
37905;SDS011;23739;51.448;6.674;2023-04-06T02:50:25;11.98;;;7.22;;
37905;SDS011;23739;51.448;6.674;2023-04-06T02:52:52;13.93;;;7.95;;
37905;SDS011;23739;51.448;6.674;2023-04-06T02:55:18;18.65;;;7.45;;
37905;SDS011;23739;51.448;6.674;2023-04-06T02:57:45;11.20;;;7.30;;
37905;SDS011;23739;51.448;6.674;2023-04-06T03:00:11;12.20;;;7.57;;
37905;SDS011;23739;51.448;6.674;2023-04-06T03:02:37;12.63;;;8.32;;
37905;SDS011;23739;51.448;6.674;2023-04-06T03:05:03;12.10;;;7.95;;
37905;SDS011;23739;51.448;6.674;2023-04-06T03:07:30;12.57;;;6.90;;
37905;SDS011;23739;51.448;6.674;2023-04-06T03:09:56;11.38;;;7.93;;
37905;SDS011;23739;51.448;6.674;2023-04-06T03:12:22;15.70;;;7.85;;
37905;SDS011;23739;51.448;6.674;2023-04-06T03:14:48;12.15;;;8.00;;
37905;SDS011;23739;51.448;6.674;2023-04-06T03:17:14;13.40;;;8.13;;
37905;SDS011;23739;51.448;6.674;2023-04-06T03:19:40;19.42;;;9.95;;
37905;SDS011;23739;51.448;6.674;2023-04-06T03:22:06;17.85;;;8.90;;
37905;SDS011;23739;51.448;6.674;2023-04-06T03:24:32;17.42;;;9.68;;
37905;SDS011;23739;51.448;6.674;2023-04-06T03:26:58;13.65;;;8.10;;
37905;SDS011;23739;51.448;6.674;2023-04-06T03:29:25;13.18;;;7.55;;
37905;SDS011;23739;51.448;6.674;2023-04-06T03:31:52;14.73;;;7.97;;
37905;SDS011;23739;51.448;6.674;2023-04-06T03:34:18;11.48;;;7.68;;
37905;SDS011;23739;51.448;6.674;2023-04-06T03:36:44;13.00;;;8.70;;
37905;SDS011;23739;51.448;6.674;2023-04-06T03:39:10;14.63;;;7.88;;
37905;SDS011;23739;51.448;6.674;2023-04-06T03:41:36;11.18;;;8.70;;
37905;SDS011;23739;51.448;6.674;2023-04-06T03:44:03;13.55;;;7.22;;
37905;SDS011;23739;51.448;6.674;2023-04-06T03:46:29;15.23;;;8.88;;
37905;SDS011;23739;51.448;6.674;2023-04-06T03:48:55;17.17;;;7.97;;
37905;SDS011;23739;51.448;6.674;2023-04-06T03:51:21;14.48;;;9.32;;
37905;SDS011;23739;51.448;6.674;2023-04-06T03:53:47;17.30;;;9.20;;
37905;SDS011;23739;51.448;6.674;2023-04-06T03:56:14;17.00;;;8.63;;
37905;SDS011;23739;51.448;6.674;2023-04-06T03:58:40;13.90;;;8.52;;
37905;SDS011;23739;51.448;6.674;2023-04-06T04:01:06;15.30;;;9.43;;
37905;SDS011;23739;51.448;6.674;2023-04-06T04:03:32;14.27;;;8.27;;
37905;SDS011;23739;51.448;6.674;2023-04-06T04:05:58;16.83;;;8.05;;
37905;SDS011;23739;51.448;6.674;2023-04-06T04:08:25;12.77;;;8.65;;
37905;SDS011;23739;51.448;6.674;2023-04-06T04:10:51;13.60;;;9.00;;
37905;SDS011;23739;51.448;6.674;2023-04-06T04:13:17;23.35;;;9.35;;
37905;SDS011;23739;51.448;6.674;2023-04-06T04:15:43;13.38;;;8.48;;
37905;SDS011;23739;51.448;6.674;2023-04-06T04:18:10;20.27;;;8.35;;
37905;SDS011;23739;51.448;6.674;2023-04-06T04:20:36;14.70;;;8.20;;
37905;SDS011;23739;51.448;6.674;2023-04-06T04:23:02;15.40;;;8.93;;
37905;SDS011;23739;51.448;6.674;2023-04-06T04:25:28;14.98;;;8.57;;
37905;SDS011;23739;51.448;6.674;2023-04-06T04:27:54;14.70;;;8.50;;
37905;SDS011;23739;51.448;6.674;2023-04-06T04:30:20;17.27;;;9.45;;
37905;SDS011;23739;51.448;6.674;2023-04-06T04:32:46;13.32;;;8.40;;
37905;SDS011;23739;51.448;6.674;2023-04-06T04:35:12;12.80;;;8.57;;
37905;SDS011;23739;51.448;6.674;2023-04-06T04:37:40;14.80;;;9.02;;
37905;SDS011;23739;51.448;6.674;2023-04-06T04:40:06;20.63;;;9.70;;
37905;SDS011;23739;51.448;6.674;2023-04-06T04:42:33;14.52;;;10.30;;
37905;SDS011;23739;51.448;6.674;2023-04-06T04:44:59;19.70;;;9.20;;
37905;SDS011;23739;51.448;6.674;2023-04-06T04:47:25;16.30;;;8.90;;
37905;SDS011;23739;51.448;6.674;2023-04-06T04:49:51;15.15;;;9.32;;
37905;SDS011;23739;51.448;6.674;2023-04-06T04:52:17;14.45;;;8.57;;
37905;SDS011;23739;51.448;6.674;2023-04-06T04:54:44;13.73;;;8.35;;
37905;SDS011;23739;51.448;6.674;2023-04-06T04:57:12;17.17;;;9.38;;
37905;SDS011;23739;51.448;6.674;2023-04-06T04:59:38;12.25;;;8.20;;
37905;SDS011;23739;51.448;6.674;2023-04-06T05:02:04;14.70;;;8.32;;
37905;SDS011;23739;51.448;6.674;2023-04-06T05:04:30;12.40;;;8.88;;
37905;SDS011;23739;51.448;6.674;2023-04-06T05:07:06;16.60;;;8.93;;
37905;SDS011;23739;51.448;6.674;2023-04-06T05:09:32;13.05;;;8.35;;
37905;SDS011;23739;51.448;6.674;2023-04-06T05:11:59;13.60;;;7.47;;
37905;SDS011;23739;51.448;6.674;2023-04-06T05:14:25;16.40;;;7.78;;
37905;SDS011;23739;51.448;6.674;2023-04-06T05:16:52;15.13;;;7.28;;
37905;SDS011;23739;51.448;6.674;2023-04-06T05:19:18;14.05;;;7.38;;
37905;SDS011;23739;51.448;6.674;2023-04-06T05:21:44;11.93;;;7.18;;
37905;SDS011;23739;51.448;6.674;2023-04-06T05:24:10;14.18;;;7.75;;
37905;SDS011;23739;51.448;6.674;2023-04-06T05:26:36;15.88;;;9.00;;
37905;SDS011;23739;51.448;6.674;2023-04-06T05:29:02;16.65;;;7.68;;
37905;SDS011;23739;51.448;6.674;2023-04-06T05:31:29;11.98;;;7.10;;
37905;SDS011;23739;51.448;6.674;2023-04-06T05:33:56;13.95;;;8.15;;
37905;SDS011;23739;51.448;6.674;2023-04-06T05:36:22;15.48;;;8.15;;
37905;SDS011;23739;51.448;6.674;2023-04-06T05:38:48;13.77;;;7.22;;
37905;SDS011;23739;51.448;6.674;2023-04-06T05:41:15;16.42;;;8.23;;
37905;SDS011;23739;51.448;6.674;2023-04-06T05:43:41;13.55;;;7.43;;
37905;SDS011;23739;51.448;6.674;2023-04-06T05:46:07;12.23;;;8.35;;
37905;SDS011;23739;51.448;6.674;2023-04-06T05:48:34;15.07;;;7.85;;
37905;SDS011;23739;51.448;6.674;2023-04-06T05:51:00;15.50;;;7.65;;
37905;SDS011;23739;51.448;6.674;2023-04-06T05:53:27;11.25;;;6.38;;
37905;SDS011;23739;51.448;6.674;2023-04-06T05:55:54;12.50;;;7.22;;
37905;SDS011;23739;51.448;6.674;2023-04-06T05:58:20;16.67;;;6.65;;
37905;SDS011;23739;51.448;6.674;2023-04-06T06:00:46;11.90;;;7.07;;
37905;SDS011;23739;51.448;6.674;2023-04-06T06:03:12;14.75;;;6.63;;
37905;SDS011;23739;51.448;6.674;2023-04-06T06:05:40;11.02;;;6.60;;
37905;SDS011;23739;51.448;6.674;2023-04-06T06:08:06;11.05;;;6.93;;
37905;SDS011;23739;51.448;6.674;2023-04-06T06:10:32;11.10;;;6.63;;
37905;SDS011;23739;51.448;6.674;2023-04-06T06:12:58;11.93;;;6.40;;
37905;SDS011;23739;51.448;6.674;2023-04-06T06:15:24;11.23;;;6.25;;
37905;SDS011;23739;51.448;6.674;2023-04-06T06:17:51;12.70;;;7.25;;
37905;SDS011;23739;51.448;6.674;2023-04-06T06:20:17;10.48;;;6.75;;
37905;SDS011;23739;51.448;6.674;2023-04-06T06:22:43;12.95;;;6.90;;
37905;SDS011;23739;51.448;6.674;2023-04-06T06:25:09;8.55;;;5.82;;
37905;SDS011;23739;51.448;6.674;2023-04-06T06:27:35;11.43;;;6.78;;
37905;SDS011;23739;51.448;6.674;2023-04-06T06:30:02;10.18;;;6.40;;
37905;SDS011;23739;51.448;6.674;2023-04-06T06:32:28;11.43;;;6.43;;
37905;SDS011;23739;51.448;6.674;2023-04-06T06:34:55;10.93;;;6.32;;
37905;SDS011;23739;51.448;6.674;2023-04-06T06:37:21;12.77;;;6.93;;
37905;SDS011;23739;51.448;6.674;2023-04-06T06:39:47;8.38;;;6.43;;
37905;SDS011;23739;51.448;6.674;2023-04-06T06:42:13;10.77;;;7.05;;
37905;SDS011;23739;51.448;6.674;2023-04-06T06:44:39;10.23;;;6.45;;
37905;SDS011;23739;51.448;6.674;2023-04-06T06:47:05;14.02;;;7.00;;
37905;SDS011;23739;51.448;6.674;2023-04-06T06:49:31;8.88;;;6.15;;
37905;SDS011;23739;51.448;6.674;2023-04-06T06:51:57;11.07;;;6.80;;
37905;SDS011;23739;51.448;6.674;2023-04-06T06:54:23;11.15;;;7.00;;
37905;SDS011;23739;51.448;6.674;2023-04-06T06:56:49;14.05;;;7.05;;
37905;SDS011;23739;51.448;6.674;2023-04-06T06:59:16;9.93;;;5.90;;
37905;SDS011;23739;51.448;6.674;2023-04-06T07:01:42;10.82;;;6.47;;
37905;SDS011;23739;51.448;6.674;2023-04-06T07:04:08;10.48;;;6.40;;
37905;SDS011;23739;51.448;6.674;2023-04-06T07:06:35;10.80;;;6.32;;
37905;SDS011;23739;51.448;6.674;2023-04-06T07:09:01;14.02;;;6.72;;
37905;SDS011;23739;51.448;6.674;2023-04-06T07:11:28;17.40;;;7.20;;
37905;SDS011;23739;51.448;6.674;2023-04-06T07:13:55;15.55;;;6.80;;
37905;SDS011;23739;51.448;6.674;2023-04-06T07:16:21;11.48;;;7.40;;
37905;SDS011;23739;51.448;6.674;2023-04-06T07:18:47;14.52;;;6.28;;
37905;SDS011;23739;51.448;6.674;2023-04-06T07:21:13;14.82;;;7.60;;
37905;SDS011;23739;51.448;6.674;2023-04-06T07:23:39;14.82;;;6.60;;
37905;SDS011;23739;51.448;6.674;2023-04-06T07:26:05;11.30;;;6.78;;
37905;SDS011;23739;51.448;6.674;2023-04-06T07:28:32;16.80;;;6.97;;
37905;SDS011;23739;51.448;6.674;2023-04-06T07:30:58;10.75;;;6.72;;
37905;SDS011;23739;51.448;6.674;2023-04-06T07:39:31;14.90;;;8.00;;
37905;SDS011;23739;51.448;6.674;2023-04-06T07:41:57;16.83;;;9.07;;
37905;SDS011;23739;51.448;6.674;2023-04-06T07:44:23;18.02;;;7.95;;
37905;SDS011;23739;51.448;6.674;2023-04-06T07:46:50;13.63;;;7.40;;
37905;SDS011;23739;51.448;6.674;2023-04-06T07:49:16;10.05;;;6.30;;
37905;SDS011;23739;51.448;6.674;2023-04-06T07:51:42;12.90;;;6.78;;
37905;SDS011;23739;51.448;6.674;2023-04-06T07:54:08;11.15;;;7.30;;
37905;SDS011;23739;51.448;6.674;2023-04-06T07:56:34;11.75;;;6.75;;
37905;SDS011;23739;51.448;6.674;2023-04-06T07:59:00;15.43;;;7.28;;
37905;SDS011;23739;51.448;6.674;2023-04-06T08:01:28;10.90;;;6.43;;
37905;SDS011;23739;51.448;6.674;2023-04-06T08:03:55;15.07;;;8.73;;
37905;SDS011;23739;51.448;6.674;2023-04-06T08:06:21;20.20;;;8.88;;
37905;SDS011;23739;51.448;6.674;2023-04-06T08:08:47;18.17;;;10.13;;
37905;SDS011;23739;51.448;6.674;2023-04-06T08:11:14;29.08;;;12.30;;
37905;SDS011;23739;51.448;6.674;2023-04-06T08:13:40;17.70;;;11.15;;
37905;SDS011;23739;51.448;6.674;2023-04-06T08:16:06;18.95;;;11.43;;
37905;SDS011;23739;51.448;6.674;2023-04-06T08:18:33;20.33;;;9.45;;
37905;SDS011;23739;51.448;6.674;2023-04-06T08:20:59;12.32;;;7.95;;
37905;SDS011;23739;51.448;6.674;2023-04-06T08:23:26;15.32;;;8.15;;
37905;SDS011;23739;51.448;6.674;2023-04-06T08:25:52;15.43;;;8.15;;
37905;SDS011;23739;51.448;6.674;2023-04-06T08:28:19;19.83;;;9.65;;
37905;SDS011;23739;51.448;6.674;2023-04-06T08:30:46;15.63;;;9.13;;
37905;SDS011;23739;51.448;6.674;2023-04-06T08:33:12;14.10;;;9.52;;
37905;SDS011;23739;51.448;6.674;2023-04-06T08:35:39;18.05;;;7.40;;
37905;SDS011;23739;51.448;6.674;2023-04-06T08:38:05;16.80;;;8.65;;
37905;SDS011;23739;51.448;6.674;2023-04-06T08:40:35;22.65;;;9.82;;
37905;SDS011;23739;51.448;6.674;2023-04-06T08:43:02;20.20;;;10.32;;
37905;SDS011;23739;51.448;6.674;2023-04-06T08:45:33;14.85;;;9.20;;
37905;SDS011;23739;51.448;6.674;2023-04-06T08:47:59;21.85;;;10.77;;
37905;SDS011;23739;51.448;6.674;2023-04-06T08:50:27;18.35;;;10.43;;
37905;SDS011;23739;51.448;6.674;2023-04-06T08:52:55;20.60;;;10.55;;
37905;SDS011;23739;51.448;6.674;2023-04-06T08:55:21;23.05;;;10.02;;
37905;SDS011;23739;51.448;6.674;2023-04-06T08:57:48;18.92;;;10.70;;
37905;SDS011;23739;51.448;6.674;2023-04-06T09:00:15;15.52;;;9.35;;
37905;SDS011;23739;51.448;6.674;2023-04-06T09:02:42;17.38;;;10.07;;
37905;SDS011;23739;51.448;6.674;2023-04-06T09:05:08;19.77;;;9.73;;
37905;SDS011;23739;51.448;6.674;2023-04-06T09:07:38;12.63;;;8.52;;
37905;SDS011;23739;51.448;6.674;2023-04-06T09:10:05;17.75;;;9.43;;
37905;SDS011;23739;51.448;6.674;2023-04-06T09:12:31;15.43;;;8.80;;
37905;SDS011;23739;51.448;6.674;2023-04-06T09:14:58;16.00;;;10.07;;
37905;SDS011;23739;51.448;6.674;2023-04-06T09:17:25;20.88;;;10.25;;
37905;SDS011;23739;51.448;6.674;2023-04-06T09:19:52;17.23;;;9.70;;
37905;SDS011;23739;51.448;6.674;2023-04-06T09:22:18;13.05;;;8.65;;
37905;SDS011;23739;51.448;6.674;2023-04-06T09:24:49;13.57;;;9.07;;
37905;SDS011;23739;51.448;6.674;2023-04-06T09:27:16;16.00;;;9.13;;
37905;SDS011;23739;51.448;6.674;2023-04-06T09:29:43;16.35;;;9.52;;
37905;SDS011;23739;51.448;6.674;2023-04-06T09:32:10;12.30;;;8.45;;
37905;SDS011;23739;51.448;6.674;2023-04-06T09:34:37;15.55;;;9.45;;
37905;SDS011;23739;51.448;6.674;2023-04-06T09:37:16;13.27;;;8.63;;
37905;SDS011;23739;51.448;6.674;2023-04-06T09:39:43;15.75;;;9.55;;
37905;SDS011;23739;51.448;6.674;2023-04-06T09:42:09;17.02;;;9.88;;
37905;SDS011;23739;51.448;6.674;2023-04-06T09:44:36;12.15;;;8.75;;
37905;SDS011;23739;51.448;6.674;2023-04-06T09:47:03;18.35;;;9.30;;
37905;SDS011;23739;51.448;6.674;2023-04-06T09:49:33;12.55;;;8.55;;
37905;SDS011;23739;51.448;6.674;2023-04-06T09:52:02;15.82;;;9.25;;
37905;SDS011;23739;51.448;6.674;2023-04-06T09:54:30;15.48;;;8.60;;
37905;SDS011;23739;51.448;6.674;2023-04-06T10:00:06;14.13;;;8.52;;
37905;SDS011;23739;51.448;6.674;2023-04-06T10:02:18;16.55;;;10.60;;
37905;SDS011;23739;51.448;6.674;2023-04-06T10:04:53;18.38;;;10.18;;
37905;SDS011;23739;51.448;6.674;2023-04-06T10:07:22;17.70;;;10.13;;
37905;SDS011;23739;51.448;6.674;2023-04-06T10:09:48;15.68;;;9.63;;
37905;SDS011;23739;51.448;6.674;2023-04-06T10:12:15;13.60;;;8.73;;
37905;SDS011;23739;51.448;6.674;2023-04-06T10:14:41;14.70;;;9.18;;
37905;SDS011;23739;51.448;6.674;2023-04-06T10:17:09;19.48;;;9.57;;
37905;SDS011;23739;51.448;6.674;2023-04-06T10:22:02;17.52;;;10.50;;
37905;SDS011;23739;51.448;6.674;2023-04-06T10:24:29;16.25;;;10.27;;
37905;SDS011;23739;51.448;6.674;2023-04-06T10:27:02;17.98;;;11.57;;
37905;SDS011;23739;51.448;6.674;2023-04-06T10:29:40;16.83;;;10.02;;
37905;SDS011;23739;51.448;6.674;2023-04-06T10:32:06;18.05;;;9.88;;
37905;SDS011;23739;51.448;6.674;2023-04-06T10:34:35;18.83;;;10.48;;
37905;SDS011;23739;51.448;6.674;2023-04-06T10:37:12;17.27;;;10.88;;
37905;SDS011;23739;51.448;6.674;2023-04-06T10:42:37;17.50;;;10.90;;
37905;SDS011;23739;51.448;6.674;2023-04-06T10:45:06;20.40;;;10.88;;
37905;SDS011;23739;51.448;6.674;2023-04-06T10:47:42;14.65;;;9.02;;
37905;SDS011;23739;51.448;6.674;2023-04-06T10:50:08;22.80;;;9.90;;
37905;SDS011;23739;51.448;6.674;2023-04-06T10:52:36;16.45;;;10.00;;
37905;SDS011;23739;51.448;6.674;2023-04-06T10:55:02;15.80;;;9.80;;
37905;SDS011;23739;51.448;6.674;2023-04-06T10:57:28;17.30;;;10.95;;
37905;SDS011;23739;51.448;6.674;2023-04-06T10:59:56;18.42;;;10.82;;
37905;SDS011;23739;51.448;6.674;2023-04-06T11:02:22;18.17;;;11.57;;
37905;SDS011;23739;51.448;6.674;2023-04-06T11:04:57;21.55;;;11.00;;
37905;SDS011;23739;51.448;6.674;2023-04-06T11:07:27;17.20;;;9.90;;
37905;SDS011;23739;51.448;6.674;2023-04-06T11:09:55;14.98;;;10.05;;
37905;SDS011;23739;51.448;6.674;2023-04-06T11:12:25;17.73;;;10.40;;
37905;SDS011;23739;51.448;6.674;2023-04-06T11:14:52;16.58;;;9.77;;
37905;SDS011;23739;51.448;6.674;2023-04-06T11:17:25;19.15;;;12.07;;
37905;SDS011;23739;51.448;6.674;2023-04-06T11:19:51;18.65;;;10.50;;
37905;SDS011;23739;51.448;6.674;2023-04-06T11:22:17;21.63;;;11.15;;
37905;SDS011;23739;51.448;6.674;2023-04-06T11:24:43;21.40;;;11.80;;
37905;SDS011;23739;51.448;6.674;2023-04-06T11:27:10;18.02;;;12.35;;
37905;SDS011;23739;51.448;6.674;2023-04-06T11:29:36;23.88;;;10.55;;
37905;SDS011;23739;51.448;6.674;2023-04-06T11:32:06;15.57;;;9.95;;
37905;SDS011;23739;51.448;6.674;2023-04-06T11:34:38;18.70;;;11.02;;
37905;SDS011;23739;51.448;6.674;2023-04-06T11:37:09;19.50;;;11.05;;
37905;SDS011;23739;51.448;6.674;2023-04-06T11:39:39;19.50;;;10.77;;
37905;SDS011;23739;51.448;6.674;2023-04-06T11:42:06;19.38;;;11.68;;
37905;SDS011;23739;51.448;6.674;2023-04-06T11:44:39;15.77;;;10.77;;
37905;SDS011;23739;51.448;6.674;2023-04-06T11:47:06;19.95;;;11.02;;
37905;SDS011;23739;51.448;6.674;2023-04-06T11:49:33;19.42;;;11.38;;
37905;SDS011;23739;51.448;6.674;2023-04-06T11:52:00;20.15;;;10.50;;
37905;SDS011;23739;51.448;6.674;2023-04-06T11:54:30;20.33;;;10.73;;
37905;SDS011;23739;51.448;6.674;2023-04-06T11:56:56;18.90;;;11.63;;
37905;SDS011;23739;51.448;6.674;2023-04-06T11:59:22;19.05;;;11.00;;
37905;SDS011;23739;51.448;6.674;2023-04-06T12:01:48;22.10;;;11.25;;
37905;SDS011;23739;51.448;6.674;2023-04-06T12:04:14;23.63;;;10.75;;
37905;SDS011;23739;51.448;6.674;2023-04-06T12:06:43;20.58;;;10.77;;
37905;SDS011;23739;51.448;6.674;2023-04-06T12:09:09;17.95;;;10.95;;
37905;SDS011;23739;51.448;6.674;2023-04-06T12:11:35;19.23;;;10.77;;
37905;SDS011;23739;51.448;6.674;2023-04-06T12:14:01;21.05;;;12.27;;
37905;SDS011;23739;51.448;6.674;2023-04-06T12:16:30;17.20;;;9.27;;
37905;SDS011;23739;51.448;6.674;2023-04-06T12:18:56;17.90;;;10.18;;
37905;SDS011;23739;51.448;6.674;2023-04-06T12:21:22;18.88;;;10.23;;
37905;SDS011;23739;51.448;6.674;2023-04-06T12:23:48;19.63;;;11.50;;
37905;SDS011;23739;51.448;6.674;2023-04-06T12:26:15;16.27;;;10.02;;
37905;SDS011;23739;51.448;6.674;2023-04-06T12:28:41;15.32;;;9.68;;
37905;SDS011;23739;51.448;6.674;2023-04-06T12:31:07;18.10;;;10.13;;
37905;SDS011;23739;51.448;6.674;2023-04-06T12:33:40;13.77;;;9.57;;
37905;SDS011;23739;51.448;6.674;2023-04-06T12:36:11;12.63;;;8.65;;
37905;SDS011;23739;51.448;6.674;2023-04-06T12:38:37;14.93;;;9.45;;
37905;SDS011;23739;51.448;6.674;2023-04-06T12:41:06;14.88;;;7.93;;
37905;SDS011;23739;51.448;6.674;2023-04-06T12:43:32;14.20;;;7.22;;
37905;SDS011;23739;51.448;6.674;2023-04-06T12:45:58;13.43;;;7.30;;
37905;SDS011;23739;51.448;6.674;2023-04-06T12:48:25;14.70;;;8.07;;
37905;SDS011;23739;51.448;6.674;2023-04-06T12:50:59;10.15;;;6.63;;
37905;SDS011;23739;51.448;6.674;2023-04-06T12:53:25;10.63;;;7.40;;
37905;SDS011;23739;51.448;6.674;2023-04-06T12:55:53;12.82;;;6.15;;
37905;SDS011;23739;51.448;6.674;2023-04-06T12:58:19;11.55;;;6.78;;
37905;SDS011;23739;51.448;6.674;2023-04-06T13:00:46;7.60;;;5.57;;
37905;SDS011;23739;51.448;6.674;2023-04-06T13:03:12;12.95;;;5.90;;
37905;SDS011;23739;51.448;6.674;2023-04-06T13:05:45;9.18;;;5.25;;
37905;SDS011;23739;51.448;6.674;2023-04-06T13:08:11;11.10;;;6.07;;
37905;SDS011;23739;51.448;6.674;2023-04-06T13:10:37;12.65;;;5.28;;
37905;SDS011;23739;51.448;6.674;2023-04-06T13:13:04;11.00;;;4.97;;
37905;SDS011;23739;51.448;6.674;2023-04-06T13:15:31;10.85;;;4.95;;
37905;SDS011;23739;51.448;6.674;2023-04-06T13:17:59;7.88;;;5.00;;
37905;SDS011;23739;51.448;6.674;2023-04-06T13:20:25;7.10;;;4.82;;
37905;SDS011;23739;51.448;6.674;2023-04-06T13:22:52;8.32;;;4.90;;
37905;SDS011;23739;51.448;6.674;2023-04-06T13:25:19;7.03;;;5.00;;
37905;SDS011;23739;51.448;6.674;2023-04-06T13:27:45;8.27;;;4.55;;
37905;SDS011;23739;51.448;6.674;2023-04-06T13:30:13;8.68;;;6.35;;
37905;SDS011;23739;51.448;6.674;2023-04-06T13:32:40;7.35;;;5.32;;
37905;SDS011;23739;51.448;6.674;2023-04-06T13:35:06;7.53;;;5.45;;
37905;SDS011;23739;51.448;6.674;2023-04-06T13:37:33;13.57;;;6.00;;
37905;SDS011;23739;51.448;6.674;2023-04-06T13:39:59;7.38;;;5.07;;
37905;SDS011;23739;51.448;6.674;2023-04-06T13:42:27;12.82;;;5.30;;
37905;SDS011;23739;51.448;6.674;2023-04-06T13:44:54;7.75;;;5.55;;
37905;SDS011;23739;51.448;6.674;2023-04-06T13:47:20;8.63;;;4.97;;
37905;SDS011;23739;51.448;6.674;2023-04-06T13:49:47;10.13;;;6.13;;
37905;SDS011;23739;51.448;6.674;2023-04-06T13:52:13;11.45;;;6.57;;
37905;SDS011;23739;51.448;6.674;2023-04-06T13:54:39;11.73;;;6.25;;
37905;SDS011;23739;51.448;6.674;2023-04-06T13:57:05;8.52;;;5.90;;
37905;SDS011;23739;51.448;6.674;2023-04-06T13:59:35;10.95;;;6.55;;
37905;SDS011;23739;51.448;6.674;2023-04-06T14:02:02;10.35;;;6.15;;
37905;SDS011;23739;51.448;6.674;2023-04-06T14:04:28;10.02;;;6.00;;
37905;SDS011;23739;51.448;6.674;2023-04-06T14:06:54;8.90;;;5.57;;
37905;SDS011;23739;51.448;6.674;2023-04-06T14:09:20;10.77;;;5.47;;
37905;SDS011;23739;51.448;6.674;2023-04-06T14:11:46;8.93;;;5.82;;
37905;SDS011;23739;51.448;6.674;2023-04-06T14:14:12;8.27;;;5.80;;
37905;SDS011;23739;51.448;6.674;2023-04-06T14:16:39;8.63;;;6.40;;
37905;SDS011;23739;51.448;6.674;2023-04-06T14:19:08;11.43;;;5.18;;
37905;SDS011;23739;51.448;6.674;2023-04-06T14:21:35;8.98;;;5.90;;
37905;SDS011;23739;51.448;6.674;2023-04-06T14:24:02;8.70;;;6.13;;
37905;SDS011;23739;51.448;6.674;2023-04-06T14:26:28;9.90;;;6.32;;
37905;SDS011;23739;51.448;6.674;2023-04-06T14:28:54;11.52;;;6.50;;
37905;SDS011;23739;51.448;6.674;2023-04-06T14:31:24;10.43;;;6.43;;
37905;SDS011;23739;51.448;6.674;2023-04-06T14:33:53;10.93;;;5.85;;
37905;SDS011;23739;51.448;6.674;2023-04-06T14:36:19;9.60;;;6.70;;
37905;SDS011;23739;51.448;6.674;2023-04-06T14:38:45;7.78;;;6.32;;
37905;SDS011;23739;51.448;6.674;2023-04-06T14:41:16;10.32;;;7.32;;
37905;SDS011;23739;51.448;6.674;2023-04-06T14:43:42;10.60;;;7.03;;
37905;SDS011;23739;51.448;6.674;2023-04-06T14:46:09;10.00;;;6.22;;